Time;durP1;ratioP1;P1;durP2;ratioP2;P2;SDS_P1;SDS_P2;PMS_P1;PMS_P2;Temp;Humidity;BMP_temperature;BMP_pressure;BME280_temperature;BME280_humidity;BME280_pressure;Samples;Min_cycle;Max_cycle;Signal;HPM_P1;HPM_P2
2022/12/14 00:00:39;;;;;;;63.57;27.10;;;-4.40;99.90;;;;;;5038028;28;20189;-40
2022/12/14 00:03:05;;;;;;;69.83;25.33;;;-4.30;99.90;;;;;;5052264;28;20397;-39
2022/12/14 00:05:32;;;;;;;57.07;24.73;;;-4.20;1.00;;;;;;5053389;28;20476;-39
2022/12/14 00:08:07;;;;;;;55.33;24.60;;;-4.10;99.90;;;;;;5053840;28;20400;-39
2022/12/14 00:10:38;;;;;;;60.50;26.07;;;-4.00;99.90;;;;;;5046062;28;21065;-40
2022/12/14 00:13:04;;;;;;;64.50;25.30;;;-4.10;35.60;;;;;;5051758;28;20519;-39
2022/12/14 00:15:31;;;;;;;52.83;24.03;;;-4.10;1.00;;;;;;5038988;28;20442;-39
2022/12/14 00:17:57;;;;;;;60.67;24.73;;;-4.20;1.00;;;;;;5054082;28;20875;-39
2022/12/14 00:20:23;;;;;;;64.00;25.33;;;-4.20;1.00;;;;;;5053008;28;20905;-39
2022/12/14 00:22:49;;;;;;;55.40;24.50;;;-4.30;1.00;;;;;;5052470;28;20433;-39
2022/12/14 00:25:15;;;;;;;47.50;22.30;;;-4.30;1.00;;;;;;5052776;28;20487;-39
2022/12/14 00:27:45;;;;;;;53.27;24.20;;;-4.40;1.00;;;;;;5053669;28;20772;-39
2022/12/14 00:30:13;;;;;;;53.67;22.80;;;-4.40;1.00;;;;;;5048151;28;20190;-40
2022/12/14 00:32:39;;;;;;;52.60;22.80;;;-4.50;1.00;;;;;;5053640;28;20753;-40
2022/12/14 00:35:10;;;;;;;60.53;23.77;;;-4.50;1.00;;;;;;5053292;28;20433;-40
2022/12/14 00:37:36;;;;;;;49.53;20.57;;;-4.50;1.00;;;;;;5051479;28;20428;-40
2022/12/14 00:40:04;;;;;;;54.23;21.70;;;-4.60;1.00;;;;;;5053145;28;20428;-39
2022/12/14 00:42:30;;;;;;;57.13;22.67;;;-4.60;1.00;;;;;;5052637;28;20518;-40
2022/12/14 00:44:58;;;;;;;54.33;21.60;;;-4.70;1.00;;;;;;5036539;28;21072;-39
2022/12/14 00:47:24;;;;;;;52.57;22.57;;;-4.70;1.00;;;;;;5049307;28;20437;-38
2022/12/14 00:49:50;;;;;;;52.33;22.20;;;-4.60;1.00;;;;;;5051220;28;20422;-40
2022/12/14 00:52:16;;;;;;;50.87;22.60;;;-4.60;1.00;;;;;;5053215;28;20417;-39
2022/12/14 00:54:42;;;;;;;54.30;23.33;;;-4.50;1.00;;;;;;5047538;28;20934;-39
2022/12/14 00:57:09;;;;;;;51.57;22.40;;;-4.50;1.00;;;;;;5033324;28;20244;-39
2022/12/14 00:59:34;;;;;;;53.60;22.97;;;-4.60;99.90;;;;;;5057706;28;20457;-39
2022/12/14 01:02:00;;;;;;;51.33;21.37;;;-4.60;99.90;;;;;;5058846;28;20463;-38
2022/12/14 01:04:27;;;;;;;59.97;22.37;;;-4.70;99.90;;;;;;5054260;28;20195;-38
2022/12/14 01:06:53;;;;;;;48.90;21.30;;;-4.80;99.90;;;;;;5051895;28;20820;-40
2022/12/14 01:09:23;;;;;;;48.10;21.57;;;-4.80;99.90;;;;;;5042399;28;20454;-39
2022/12/14 01:11:51;;;;;;;44.07;21.43;;;-4.80;99.90;;;;;;5039451;28;20432;-40
2022/12/14 01:14:21;;;;;;;47.73;21.50;;;-4.90;99.90;;;;;;5044877;28;20429;-39
2022/12/14 01:16:47;;;;;;;55.77;22.93;;;-4.80;99.90;;;;;;5052909;28;20454;-40
2022/12/14 01:19:14;;;;;;;44.67;19.00;;;-4.80;1.00;;;;;;5052341;28;20415;-40
2022/12/14 01:21:40;;;;;;;51.50;20.37;;;-4.90;99.90;;;;;;5044987;28;20429;-39
2022/12/14 01:24:07;;;;;;;51.13;21.13;;;-4.90;99.90;;;;;;5033247;28;20434;-39
2022/12/14 01:26:37;;;;;;;49.03;20.33;;;-4.80;99.90;;;;;;5050855;28;20480;-39
2022/12/14 01:29:03;;;;;;;46.60;20.80;;;-4.80;99.90;;;;;;5047646;28;20997;-40
2022/12/14 01:31:34;;;;;;;50.53;20.90;;;-4.80;99.90;;;;;;5048531;28;20926;-40
2022/12/14 01:34:20;;;;;;;40.00;19.73;;;-4.70;99.90;;;;;;5052271;28;20433;-40
2022/12/14 01:36:47;;;;;;;51.17;20.43;;;-4.70;1.00;;;;;;5046778;28;20456;-40
2022/12/14 01:39:14;;;;;;;45.63;20.33;;;-4.70;1.00;;;;;;5035408;28;20515;-39
2022/12/14 01:41:46;;;;;;;44.70;19.40;;;-4.70;99.90;;;;;;5032843;28;20410;-40
2022/12/14 01:44:15;;;;;;;46.97;18.47;;;-4.80;99.90;;;;;;5032722;28;20441;-40
2022/12/14 01:47:07;;;;;;;44.67;18.93;;;-4.80;99.90;;;;;;5032588;28;20465;-40
2022/12/14 01:49:49;;;;;;;45.17;18.70;;;-4.80;99.90;;;;;;5040547;28;20524;-40
2022/12/14 01:52:29;;;;;;;40.50;19.60;;;-4.80;99.90;;;;;;5048379;28;20885;-39
2022/12/14 01:55:01;;;;;;;40.83;17.97;;;-4.90;99.90;;;;;;5050163;28;20447;-40
2022/12/14 01:57:34;;;;;;;41.67;19.10;;;-5.00;99.90;;;;;;5038304;28;20523;-39
2022/12/14 02:00:00;;;;;;;45.07;18.70;;;-4.90;99.90;;;;;;5045156;28;20440;-39
2022/12/14 02:02:27;;;;;;;46.17;20.00;;;-5.00;99.90;;;;;;5049959;28;20444;-39
2022/12/14 02:04:56;;;;;;;46.50;19.33;;;-5.00;99.90;;;;;;5051316;28;20531;-39
2022/12/14 02:07:24;;;;;;;34.70;18.10;;;-5.10;99.90;;;;;;5045603;28;20475;-40
2022/12/14 02:09:52;;;;;;;43.57;18.10;;;-5.10;99.90;;;;;;5051349;28;20444;-40
2022/12/14 02:12:24;;;;;;;37.20;17.30;;;-5.20;1.00;;;;;;5050084;28;20444;-40
2022/12/14 02:14:51;;;;;;;46.43;18.87;;;-5.00;1.00;;;;;;5051283;28;20772;-39
2022/12/14 02:17:19;;;;;;;41.33;16.87;;;-5.10;1.00;;;;;;5051629;28;20497;-40
2022/12/14 02:19:48;;;;;;;41.33;17.80;;;-5.20;99.90;;;;;;5051306;28;20473;-39
2022/12/14 02:22:47;;;;;;;38.43;16.87;;;-5.20;99.90;;;;;;5046641;28;20530;-40
2022/12/14 02:25:41;;;;;;;42.13;18.13;;;-5.30;99.90;;;;;;5048697;28;20488;-40
2022/12/14 02:28:44;;;;;;;36.93;16.53;;;-5.40;1.00;;;;;;5050030;28;20455;-39
2022/12/14 02:31:40;;;;;;;41.70;17.40;;;-5.40;1.00;;;;;;5014612;28;20448;-38
2022/12/14 02:34:42;;;;;;;33.10;15.73;;;-5.30;1.00;;;;;;5049874;28;21129;-39
2022/12/14 02:37:38;;;;;;;37.57;16.50;;;-5.30;1.00;;;;;;5050030;28;20534;-40
2022/12/14 02:40:31;;;;;;;43.60;17.20;;;-5.30;1.00;;;;;;5044033;28;20452;-39
2022/12/14 02:43:20;;;;;;;41.77;17.50;;;-5.30;1.00;;;;;;5051340;28;20475;-39
2022/12/14 02:46:11;;;;;;;37.17;17.20;;;-5.20;1.00;;;;;;5034461;28;20460;-40
2022/12/14 02:48:48;;;;;;;40.03;17.87;;;-5.30;1.00;;;;;;5050752;28;20448;-39
2022/12/14 02:51:26;;;;;;;45.43;16.73;;;-5.20;1.00;;;;;;5048918;28;20517;-40
2022/12/14 02:54:01;;;;;;;38.50;17.47;;;-5.20;1.00;;;;;;5043845;28;20468;-39
2022/12/14 02:56:38;;;;;;;38.33;17.20;;;-5.20;1.00;;;;;;5032986;28;20499;-40
2022/12/14 02:59:09;;;;;;;35.00;16.13;;;-5.10;1.00;;;;;;5035687;28;20446;-42
2022/12/14 03:01:37;;;;;;;34.37;17.10;;;-5.10;99.90;;;;;;5035116;28;20917;-39
2022/12/14 03:04:04;;;;;;;38.57;17.00;;;-5.00;99.90;;;;;;5035412;28;20800;-40
2022/12/14 03:06:31;;;;;;;39.67;17.53;;;-5.10;1.00;;;;;;5041192;28;20476;-40
2022/12/14 03:09:13;;;;;;;38.53;16.40;;;-5.20;1.00;;;;;;5035573;28;20437;-39
2022/12/14 03:11:51;;;;;;;33.30;16.60;;;-5.30;1.00;;;;;;5038732;28;20498;-40
2022/12/14 03:14:46;;;;;;;40.30;17.90;;;-5.40;1.00;;;;;;5048827;28;20803;-40
2022/12/14 03:17:16;;;;;;;37.33;16.23;;;-5.50;1.00;;;;;;5046987;28;20547;-40
2022/12/14 03:20:17;;;;;;;38.60;17.10;;;-5.50;42.70;;;;;;5048680;28;20436;-40
2022/12/14 03:23:01;;;;;;;38.27;17.40;;;-5.60;99.90;;;;;;5037708;28;20448;-39
2022/12/14 03:25:46;;;;;;;38.47;16.50;;;-5.40;1.00;;;;;;5048495;28;20492;-40
2022/12/14 03:28:21;;;;;;;35.77;15.80;;;-5.40;1.00;;;;;;5049508;28;20445;-40
2022/12/14 03:30:54;;;;;;;41.53;17.27;;;-5.50;1.00;;;;;;5049247;28;20474;-40
2022/12/14 03:33:23;;;;;;;34.87;17.30;;;-5.40;1.00;;;;;;5045600;28;20526;-39
2022/12/14 03:36:18;;;;;;;42.50;18.50;;;-5.30;1.00;;;;;;5049808;28;20498;-40
2022/12/14 03:38:49;;;;;;;37.37;16.77;;;-5.30;1.00;;;;;;5028496;28;20486;-40
2022/12/14 03:41:24;;;;;;;35.27;17.20;;;-5.30;1.00;;;;;;5049251;28;20466;-40
2022/12/14 03:44:17;;;;;;;;;;;;;;;;;;;;;
2022/12/14 03:47:25;;;;;;;37.93;16.43;;;-5.40;99.90;;;;;;5046578;28;20492;-40
2022/12/14 03:50:05;;;;;;;33.80;14.63;;;-5.40;99.90;;;;;;5049428;28;20868;-41
2022/12/14 03:52:41;;;;;;;41.33;17.30;;;-5.50;1.00;;;;;;5032683;28;20447;-39
2022/12/14 03:55:28;;;;;;;40.80;16.67;;;-5.40;1.00;;;;;;5036202;28;20778;-41
2022/12/14 03:58:02;;;;;;;43.50;17.83;;;-5.50;1.00;;;;;;5047002;28;20842;-40
2022/12/14 04:00:34;;;;;;;40.50;17.20;;;-5.50;1.00;;;;;;5049422;28;20428;-41
2022/12/14 04:03:35;;;;;;;39.57;17.50;;;-5.60;1.00;;;;;;5049361;28;20439;-41
2022/12/14 04:06:05;;;;;;;34.30;17.00;;;-5.70;1.00;;;;;;5032069;28;20759;-41
2022/12/14 04:08:48;;;;;;;36.77;17.00;;;-5.70;1.00;;;;;;5049226;28;20776;-40
2022/12/14 04:20:15;;;;;;;37.73;16.67;;;-5.80;99.90;;;;;;5045580;28;20486;-41
2022/12/14 04:22:48;;;;;;;35.80;16.10;;;-5.80;99.90;;;;;;5031961;28;20756;-40
2022/12/14 04:31:08;;;;;;;34.07;16.27;;;-5.80;99.90;;;;;;5049517;28;20471;-40
2022/12/14 04:33:56;;;;;;;38.50;16.83;;;-5.90;99.90;;;;;;5048216;28;21161;-40
2022/12/14 04:36:43;;;;;;;33.70;15.80;;;-5.90;99.90;;;;;;5012777;28;20434;-41
2022/12/14 04:39:23;;;;;;;40.73;17.30;;;-5.90;99.90;;;;;;5042175;28;20877;-41
2022/12/14 04:41:52;;;;;;;37.90;16.80;;;-6.00;99.90;;;;;;5050181;28;20411;-40
2022/12/14 04:44:23;;;;;;;37.57;16.80;;;-6.00;99.90;;;;;;5049256;28;20527;-40
2022/12/14 04:46:55;;;;;;;38.17;16.77;;;-6.00;1.00;;;;;;5049756;28;20506;-40
2022/12/14 04:49:31;;;;;;;35.30;15.87;;;-6.00;1.00;;;;;;5050626;28;20499;-41
2022/12/14 04:52:27;;;;;;;39.73;18.53;;;-6.00;1.00;;;;;;5052735;28;20444;-40
2022/12/14 04:55:00;;;;;;;31.50;15.87;;;-6.00;1.00;;;;;;5053022;28;20468;-41
2022/12/14 04:57:57;;;;;;;39.17;16.30;;;-5.90;1.00;;;;;;5054051;28;20492;-41
2022/12/14 05:00:24;;;;;;;33.80;16.77;;;-5.80;1.00;;;;;;5035164;28;20429;-41
2022/12/14 05:03:28;;;;;;;32.87;15.67;;;-5.80;1.00;;;;;;5052332;28;20895;-40
2022/12/14 05:06:19;;;;;;;38.47;16.83;;;-5.90;1.00;;;;;;5021746;28;20472;-40
2022/12/14 05:09:26;;;;;;;35.90;16.40;;;-5.90;99.90;;;;;;5053315;28;20520;-40
2022/12/14 05:12:12;;;;;;;33.63;16.23;;;-5.90;99.90;;;;;;5051740;28;20463;-41
2022/12/14 05:15:01;;;;;;;36.13;15.20;;;-5.90;1.00;;;;;;5049455;28;20449;-39
2022/12/14 05:17:28;;;;;;;41.70;16.37;;;-5.90;1.00;;;;;;5051221;28;20472;-40
2022/12/14 05:19:54;;;;;;;36.90;16.00;;;-5.90;1.00;;;;;;5049834;28;20479;-39
2022/12/14 05:22:20;;;;;;;38.33;16.07;;;-5.90;1.00;;;;;;5051802;28;20452;-40
2022/12/14 05:24:46;;;;;;;38.07;16.33;;;-5.90;1.00;;;;;;5051050;28;20500;-41
2022/12/14 05:27:12;;;;;;;31.10;16.00;;;-5.90;1.00;;;;;;5052175;28;21044;-39
2022/12/14 05:29:38;;;;;;;39.83;16.13;;;-6.00;1.00;;;;;;5050939;28;20182;-41
2022/12/14 05:32:04;;;;;;;37.20;16.50;;;-6.00;1.00;;;;;;5053035;28;21225;-41
2022/12/14 05:34:30;;;;;;;36.00;16.90;;;-6.00;1.00;;;;;;5052144;28;21125;-40
2022/12/14 05:36:57;;;;;;;35.33;16.70;;;-6.00;1.00;;;;;;5051682;28;21036;-40
2022/12/14 05:39:29;;;;;;;35.60;16.70;;;-6.00;1.00;;;;;;5052432;28;20295;-42
2022/12/14 05:41:57;;;;;;;36.33;16.70;;;-6.00;1.00;;;;;;5051901;28;20448;-41
2022/12/14 05:44:23;;;;;;;36.57;16.87;;;-6.00;1.00;;;;;;5051065;28;20832;-40
2022/12/14 05:46:49;;;;;;;37.20;17.13;;;-6.00;1.00;;;;;;5048003;28;20468;-40
2022/12/14 05:49:15;;;;;;;32.00;15.43;;;-5.90;1.00;;;;;;5052159;28;20911;-40
2022/12/14 05:51:41;;;;;;;34.20;15.63;;;-5.80;1.00;;;;;;5034187;28;20582;-40
2022/12/14 05:54:07;;;;;;;44.43;16.53;;;-5.80;1.00;;;;;;5051351;28;20444;-41
2022/12/14 05:56:32;;;;;;;37.97;17.80;;;-5.90;1.00;;;;;;5051191;28;20458;-39
2022/12/14 05:59:01;;;;;;;36.40;17.10;;;-5.90;1.00;;;;;;5052288;28;20248;-42
2022/12/14 06:01:27;;;;;;;34.53;16.20;;;-5.90;1.00;;;;;;5051587;28;20221;-40
2022/12/14 06:03:53;;;;;;;31.47;15.90;;;-5.90;1.00;;;;;;5052296;28;20896;-41
2022/12/14 06:06:20;;;;;;;42.07;18.20;;;-5.90;1.00;;;;;;5051216;28;20582;-40
2022/12/14 06:08:46;;;;;;;36.93;16.87;;;-6.00;1.00;;;;;;5050762;28;20441;-39
2022/12/14 06:11:15;;;;;;;38.77;16.93;;;-6.00;1.00;;;;;;5049874;28;20441;-40
2022/12/14 06:13:41;;;;;;;39.53;17.93;;;-6.00;1.00;;;;;;5051854;28;20441;-40
2022/12/14 06:16:17;;;;;;;40.50;19.40;;;-5.90;1.00;;;;;;5051331;28;21166;-40
2022/12/14 06:18:44;;;;;;;40.80;18.57;;;-6.00;1.00;;;;;;5051737;28;20436;-39
2022/12/14 06:21:12;;;;;;;42.60;18.27;;;-6.00;1.00;;;;;;5051112;28;20436;-40
2022/12/14 06:23:38;;;;;;;36.77;16.37;;;-6.00;1.00;;;;;;5041832;28;20432;-40
2022/12/14 06:26:04;;;;;;;38.90;19.17;;;-6.00;1.00;;;;;;5050248;28;20495;-39
2022/12/14 06:28:30;;;;;;;47.17;18.77;;;-5.90;1.00;;;;;;5050149;28;20490;-40
2022/12/14 06:30:55;;;;;;;41.70;18.00;;;-5.70;10.00;;;;;;5050499;28;20440;-39
2022/12/14 06:33:21;;;;;;;38.63;18.00;;;-5.70;1.00;;;;;;5050309;28;20190;-39
2022/12/14 06:35:47;;;;;;;44.33;18.13;;;-5.80;1.00;;;;;;5034457;28;20189;-39
2022/12/14 06:38:13;;;;;;;41.43;18.80;;;-5.80;1.00;;;;;;5050139;28;20886;-39
2022/12/14 06:40:39;;;;;;;34.73;17.57;;;-5.80;1.00;;;;;;5051394;28;20182;-39
2022/12/14 06:43:05;;;;;;;41.47;19.10;;;-5.80;1.00;;;;;;5049391;28;20197;-39
2022/12/14 06:45:34;;;;;;;38.73;18.90;;;-5.90;1.00;;;;;;5031998;28;20444;-40
2022/12/14 06:48:00;;;;;;;39.07;18.87;;;-5.90;1.00;;;;;;5050865;28;20443;-39
2022/12/14 06:50:26;;;;;;;43.53;18.80;;;-6.00;1.00;;;;;;5051950;28;21045;-40
2022/12/14 06:52:55;;;;;;;37.33;17.70;;;-5.90;1.00;;;;;;5033238;28;21193;-40
2022/12/14 06:55:25;;;;;;;44.50;20.10;;;-5.90;1.00;;;;;;5051184;28;20472;-39
2022/12/14 06:57:51;;;;;;;43.80;18.73;;;-5.90;1.00;;;;;;5050605;28;20433;-40
2022/12/14 07:00:18;;;;;;;44.23;20.13;;;-5.90;1.00;;;;;;5050136;28;20781;-41
2022/12/14 07:02:45;;;;;;;37.40;18.80;;;-5.90;1.00;;;;;;5049893;28;20440;-39
2022/12/14 07:05:11;;;;;;;43.90;19.70;;;-5.90;1.00;;;;;;5047360;28;20437;-40
2022/12/14 07:07:36;;;;;;;41.47;19.70;;;-5.90;1.00;;;;;;5045504;28;20468;-40
2022/12/14 07:10:03;;;;;;;43.30;19.77;;;-5.90;1.00;;;;;;5050183;28;20436;-40
2022/12/14 07:12:28;;;;;;;48.70;20.60;;;-5.90;1.00;;;;;;5049379;28;20202;-40
2022/12/14 07:14:54;;;;;;;45.00;19.97;;;-5.90;1.00;;;;;;5049181;28;21077;-41
2022/12/14 07:17:28;;;;;;;43.80;18.90;;;-6.00;1.00;;;;;;5052766;28;20205;-40
2022/12/14 07:19:54;;;;;;;45.50;20.60;;;-6.00;1.00;;;;;;5032208;28;20235;-40
2022/12/14 07:22:24;;;;;;;40.90;20.23;;;-6.00;1.00;;;;;;5050321;28;20480;-40
2022/12/14 07:24:53;;;;;;;39.17;18.67;;;-5.90;1.00;;;;;;5046440;28;20510;-41
2022/12/14 07:27:22;;;;;;;51.93;21.83;;;-5.80;1.00;;;;;;5046223;28;20483;-41
2022/12/14 07:29:48;;;;;;;51.47;21.27;;;-5.70;1.00;;;;;;5046491;28;20440;-40
2022/12/14 07:32:14;;;;;;;46.40;22.03;;;-5.70;1.00;;;;;;5049819;28;20452;-40
2022/12/14 07:34:40;;;;;;;46.10;21.50;;;-5.70;1.00;;;;;;5047678;28;20436;-41
2022/12/14 07:37:06;;;;;;;50.90;20.37;;;-5.80;1.00;;;;;;5049918;28;20283;-41
2022/12/14 07:39:32;;;;;;;46.30;21.53;;;-5.70;1.00;;;;;;5058664;28;20470;-41
2022/12/14 07:42:01;;;;;;;47.37;21.37;;;-5.70;1.00;;;;;;5048766;28;20464;-40
2022/12/14 07:44:27;;;;;;;54.23;20.80;;;-5.80;1.00;;;;;;5050768;28;20327;-41
2022/12/14 07:47:07;;;;;;;45.40;20.73;;;-5.70;1.00;;;;;;5048870;28;20585;-41
2022/12/14 07:49:33;;;;;;;47.47;22.30;;;-5.80;1.00;;;;;;5048897;28;20193;-41
2022/12/14 07:51:58;;;;;;;47.60;21.47;;;-5.80;1.00;;;;;;5049917;28;20448;-41
2022/12/14 07:54:25;;;;;;;57.37;23.00;;;-5.80;1.00;;;;;;5050430;28;20193;-41
2022/12/14 07:56:51;;;;;;;44.50;20.70;;;-5.80;1.00;;;;;;5050434;28;20193;-40
2022/12/14 07:59:18;;;;;;;59.13;23.40;;;-5.70;1.00;;;;;;5050376;28;20791;-40
2022/12/14 08:01:44;;;;;;;52.77;22.60;;;-5.70;1.00;;;;;;5049015;28;20874;-42
2022/12/14 08:04:12;;;;;;;58.67;21.17;;;-5.70;1.00;;;;;;5050556;28;20408;-40
2022/12/14 08:06:40;;;;;;;40.90;19.33;;;-5.60;1.00;;;;;;5050308;28;21416;-41
2022/12/14 08:09:07;;;;;;;47.13;21.47;;;-5.60;1.00;;;;;;5050796;28;20848;-40
2022/12/14 08:11:33;;;;;;;43.63;21.83;;;-5.40;1.00;;;;;;5050232;28;20786;-41
2022/12/14 08:14:03;;;;;;;45.57;21.13;;;-5.40;99.90;;;;;;5050354;28;20503;-41
2022/12/14 08:16:32;;;;;;;52.90;22.20;;;-5.50;99.90;;;;;;5049632;28;20441;-41
2022/12/14 08:19:02;;;;;;;48.67;20.53;;;-5.40;99.90;;;;;;5049397;28;20452;-40
2022/12/14 08:21:28;;;;;;;47.43;22.47;;;-5.40;20.70;;;;;;5050246;28;20401;-41
2022/12/14 08:23:56;;;;;;;46.20;23.10;;;-5.30;32.70;;;;;;5031581;28;21016;-40
2022/12/14 08:26:23;;;;;;;39.77;20.40;;;-5.20;1.00;;;;;;5053519;28;20472;-40
2022/12/14 08:28:53;;;;;;;50.53;21.77;;;-5.20;99.90;;;;;;5054093;28;20455;-40
2022/12/14 08:31:22;;;;;;;56.53;22.03;;;-5.30;99.90;;;;;;5052504;28;20432;-40
2022/12/14 08:33:48;;;;;;;49.67;21.40;;;-5.30;64.30;;;;;;5043971;28;20440;-40
2022/12/14 08:36:34;;;;;;;59.57;24.10;;;-5.30;68.70;;;;;;5053897;28;20776;-39
2022/12/14 08:39:04;;;;;;;49.67;20.83;;;-5.20;99.90;;;;;;5052406;28;20810;-41
2022/12/14 08:41:30;;;;;;;51.53;22.57;;;-5.20;99.90;;;;;;5054174;28;20447;-40
2022/12/14 08:44:01;;;;;;;44.07;20.73;;;-5.10;99.90;;;;;;5049368;28;20482;-41
2022/12/14 08:46:29;;;;;;;48.93;21.93;;;-5.10;99.90;;;;;;5053720;28;20456;-40
2022/12/14 08:48:56;;;;;;;50.10;21.83;;;-5.10;99.90;;;;;;5053899;28;20397;-41
2022/12/14 08:51:23;;;;;;;58.47;23.03;;;-5.00;99.90;;;;;;5035634;28;20946;-40
2022/12/14 08:53:51;;;;;;;42.13;20.83;;;-4.90;1.00;;;;;;5052829;28;20444;-40
2022/12/14 08:56:19;;;;;;;49.97;21.30;;;-4.90;99.90;;;;;;5053500;28;20420;-41
2022/12/14 08:58:45;;;;;;;47.30;20.30;;;-4.80;1.00;;;;;;5052451;28;20911;-41
2022/12/14 09:01:16;;;;;;;40.63;19.80;;;-4.80;99.90;;;;;;5052333;28;20534;-40
2022/12/14 09:03:44;;;;;;;44.57;20.50;;;-4.90;1.00;;;;;;5052019;28;20433;-41
2022/12/14 09:06:14;;;;;;;47.00;20.17;;;-4.80;1.00;;;;;;5049505;28;20470;-39
2022/12/14 09:08:42;;;;;;;50.30;21.37;;;-4.80;1.00;;;;;;5053812;28;20411;-40
2022/12/14 09:11:11;;;;;;;45.83;21.90;;;-4.70;19.90;;;;;;5051615;28;20451;-41
2022/12/14 09:13:37;;;;;;;41.20;20.70;;;-4.60;1.00;;;;;;5052020;28;20417;-40
2022/12/14 09:16:10;;;;;;;44.33;21.77;;;-4.60;99.90;;;;;;5053172;28;20431;-40
2022/12/14 09:18:36;;;;;;;52.03;23.60;;;-4.40;1.00;;;;;;5053376;28;20405;-40
2022/12/14 09:21:02;;;;;;;51.40;21.27;;;-4.50;99.90;;;;;;5049972;28;20530;-39
2022/12/14 09:23:30;;;;;;;54.10;22.67;;;-4.30;14.80;;;;;;5051162;28;20456;-39
2022/12/14 09:26:02;;;;;;;48.03;22.03;;;-4.20;1.00;;;;;;5053042;28;20889;-40
2022/12/14 09:28:29;;;;;;;46.80;21.20;;;-4.20;1.00;;;;;;5053224;28;20424;-40
2022/12/14 09:31:00;;;;;;;48.53;22.93;;;-4.10;99.90;;;;;;5053198;28;20401;-39
2022/12/14 09:33:27;;;;;;;47.13;21.87;;;-4.10;99.90;;;;;;5053028;28;20405;-39
2022/12/14 09:36:02;;;;;;;49.63;21.37;;;-4.10;99.90;;;;;;5052540;28;20428;-39
2022/12/14 09:38:33;;;;;;;53.53;23.07;;;-4.10;87.00;;;;;;5053086;28;20464;-40
2022/12/14 09:41:02;;;;;;;49.17;23.23;;;-4.00;99.90;;;;;;5052939;28;20429;-40
2022/12/14 09:43:39;;;;;;;50.90;23.57;;;-4.00;99.90;;;;;;5053607;28;20443;-39
2022/12/14 09:46:27;;;;;;;59.57;22.00;;;-3.90;25.40;;;;;;5035450;28;20504;-40
2022/12/14 09:48:55;;;;;;;49.50;21.47;;;-3.80;1.00;;;;;;5053172;28;20401;-39
2022/12/14 09:51:33;;;;;;;42.80;22.27;;;-3.80;99.90;;;;;;5053676;28;20859;-38
2022/12/14 09:54:07;;;;;;;45.57;21.50;;;-3.70;99.90;;;;;;5053171;28;20412;-40
2022/12/14 09:56:33;;;;;;;38.33;19.60;;;-3.60;99.90;;;;;;5052885;28;20421;-39
2022/12/14 09:59:01;;;;;;;45.97;20.80;;;-3.60;99.90;;;;;;5052584;28;20417;-39
2022/12/14 10:01:50;;;;;;;52.50;20.80;;;-3.50;1.00;;;;;;5052443;28;20448;-38
2022/12/14 10:04:26;;;;;;;49.57;21.80;;;-3.30;99.90;;;;;;5052521;28;20447;-38
2022/12/14 10:07:17;;;;;;;42.50;19.10;;;-3.30;1.00;;;;;;5052201;28;20488;-39
2022/12/14 10:10:02;;;;;;;37.40;19.37;;;-3.20;1.00;;;;;;5052394;28;20478;-39
2022/12/14 10:13:00;;;;;;;43.40;20.23;;;-3.00;1.00;;;;;;5052102;28;20413;-39
2022/12/14 10:15:32;;;;;;;40.50;19.77;;;-2.80;1.00;;;;;;5052194;28;20466;-39
2022/12/14 10:18:25;;;;;;;42.50;21.00;;;-2.70;99.90;;;;;;5052484;28;20424;-38
2022/12/14 10:21:08;;;;;;;41.43;18.30;;;-2.50;99.90;;;;;;5034064;28;20424;-40
2022/12/14 10:23:34;;;;;;;43.97;19.20;;;-2.30;99.90;;;;;;5051889;28;21249;-40
2022/12/14 10:26:07;;;;;;;40.77;18.27;;;-2.00;1.00;;;;;;5051626;28;20488;-40
2022/12/14 10:28:39;;;;;;;42.13;18.37;;;-1.70;23.70;;;;;;5051781;28;20397;-41
2022/12/14 10:31:10;;;;;;;41.10;18.40;;;-1.00;99.90;;;;;;5051645;28;20734;-40
2022/12/14 10:33:41;;;;;;;38.53;18.90;;;0.20;13.10;;;;;;5051717;28;20416;-41
2022/12/14 10:36:28;;;;;;;35.43;17.73;;;1.20;99.90;;;;;;5051694;28;20470;-41
2022/12/14 10:39:06;;;;;;;38.20;18.40;;;2.30;73.70;;;;;;5051628;28;20420;-42
2022/12/14 10:41:54;;;;;;;38.80;18.00;;;3.10;1.00;;;;;;5051815;28;20409;-42
2022/12/14 10:44:54;;;;;;;41.90;21.10;;;3.60;1.00;;;;;;5051577;28;20400;-40
2022/12/14 10:47:33;;;;;;;41.33;20.50;;;4.00;1.00;;;;;;5051070;28;20914;-40
2022/12/14 10:50:13;;;;;;;34.83;19.93;;;5.00;1.00;;;;;;5051435;28;20436;-40
2022/12/14 10:52:41;;;;;;;37.07;19.93;;;6.70;1.00;;;;;;5051639;28;20404;-37
2022/12/14 10:55:16;;;;;;;37.73;21.70;;;8.10;1.00;;;;;;5051573;28;20455;-39
2022/12/14 10:57:41;;;;;;;37.43;20.23;;;9.30;1.00;;;;;;5051579;28;20938;-39
2022/12/14 11:00:13;;;;;;;38.20;20.73;;;9.90;1.00;;;;;;5051542;28;20526;-40
2022/12/14 11:02:42;;;;;;;79.43;21.93;;;9.80;1.00;;;;;;5051380;28;20178;-40
2022/12/14 11:05:36;;;;;;;37.27;21.00;;;9.30;1.00;;;;;;5048584;28;20448;-40
2022/12/14 11:08:02;;;;;;;42.60;20.60;;;8.90;1.00;;;;;;5045563;28;20947;-40
2022/12/14 11:10:31;;;;;;;34.50;21.20;;;8.10;1.00;;;;;;5047131;28;20540;-40
2022/12/14 11:13:12;;;;;;;39.57;21.40;;;7.40;1.00;;;;;;5051060;28;20445;-40
2022/12/14 11:15:46;;;;;;;46.90;22.70;;;6.90;1.00;;;;;;5049966;28;21051;-39
2022/12/14 11:18:15;;;;;;;35.07;20.30;;;6.60;1.00;;;;;;5031600;28;20783;-40
2022/12/14 11:21:02;;;;;;;35.20;19.77;;;6.70;1.00;;;;;;5035801;28;20793;-40
2022/12/14 11:23:53;;;;;;;32.27;19.10;;;7.00;1.00;;;;;;5050869;28;20459;-40
2022/12/14 11:26:28;;;;;;;36.07;20.07;;;7.00;1.00;;;;;;5049162;28;20992;-40
2022/12/14 11:29:00;;;;;;;33.50;19.17;;;6.50;1.00;;;;;;5050890;28;20842;-39
2022/12/14 11:31:29;;;;;;;33.73;17.77;;;6.00;1.00;;;;;;5049072;28;20531;-39
2022/12/14 11:33:58;;;;;;;34.70;18.17;;;5.70;1.00;;;;;;5049357;28;20534;-39
2022/12/14 11:36:37;;;;;;;33.67;17.23;;;5.40;1.00;;;;;;5039045;28;20437;-41
2022/12/14 11:39:15;;;;;;;25.43;15.50;;;5.00;1.00;;;;;;5030937;28;20974;-40
2022/12/14 11:41:45;;;;;;;25.80;16.00;;;4.70;1.00;;;;;;5030947;28;20892;-39
2022/12/14 11:44:13;;;;;;;25.50;14.87;;;4.80;1.00;;;;;;5031026;28;20465;-37
2022/12/14 11:46:42;;;;;;;27.27;15.60;;;4.80;1.00;;;;;;5044652;28;20472;-39
2022/12/14 11:49:28;;;;;;;31.83;16.30;;;4.70;1.00;;;;;;5050014;28;20631;-38
2022/12/14 11:51:58;;;;;;;29.77;16.30;;;4.70;1.00;;;;;;5043708;28;20425;-39
2022/12/14 11:54:24;;;;;;;32.70;17.30;;;4.70;1.00;;;;;;5033117;28;20478;-39
2022/12/14 11:56:51;;;;;;;28.23;17.63;;;4.70;1.00;;;;;;5048733;28;20448;-39
2022/12/14 11:59:18;;;;;;;30.37;16.63;;;4.70;1.00;;;;;;5052886;28;20475;-39
2022/12/14 12:01:44;;;;;;;29.97;16.97;;;4.80;1.00;;;;;;5064069;28;20448;-39
2022/12/14 12:04:14;;;;;;;31.40;16.10;;;5.10;1.00;;;;;;5053787;28;20444;-40
2022/12/14 12:06:41;;;;;;;32.77;16.30;;;5.50;1.00;;;;;;5054424;28;20194;-39
2022/12/14 12:09:29;;;;;;;34.63;16.47;;;5.80;1.00;;;;;;5054312;28;20444;-40
2022/12/14 12:11:55;;;;;;;37.50;17.53;;;6.00;1.00;;;;;;5055534;28;20417;-39
2022/12/14 12:14:21;;;;;;;35.90;17.40;;;6.40;1.00;;;;;;5054613;28;20848;-39
2022/12/14 12:16:47;;;;;;;30.33;17.10;;;6.60;1.00;;;;;;5055510;28;20986;-39
2022/12/14 12:19:23;;;;;;;42.53;20.13;;;7.60;1.00;;;;;;5055869;28;20297;-39
2022/12/14 12:21:51;;;;;;;33.87;18.87;;;9.00;1.00;;;;;;5055318;28;20420;-40
2022/12/14 12:24:39;;;;;;;34.83;18.83;;;10.40;1.00;;;;;;5053665;28;20486;-39
2022/12/14 12:27:12;;;;;;;33.50;18.90;;;11.50;1.00;;;;;;5054538;28;20476;-39
2022/12/14 12:29:44;;;;;;;32.40;16.40;;;12.60;1.00;;;;;;5054731;28;20401;-40
2022/12/14 12:32:22;;;;;;;29.37;17.00;;;13.60;1.00;;;;;;5051415;28;20428;-40
2022/12/14 12:35:05;;;;;;;32.67;17.40;;;14.10;1.00;;;;;;5024070;28;20436;-38
2022/12/14 12:37:40;;;;;;;41.53;18.33;;;15.10;1.00;;;;;;5055129;28;20433;-38
2022/12/14 12:40:28;;;;;;;34.13;18.27;;;15.40;1.00;;;;;;5037322;28;20620;-36
2022/12/14 12:42:59;;;;;;;31.00;18.33;;;14.90;1.00;;;;;;5053048;28;20447;-36
2022/12/14 12:45:28;;;;;;;26.00;16.93;;;14.60;1.00;;;;;;5053600;28;20532;-36
2022/12/14 12:48:27;;;;;;;25.10;16.40;;;15.20;1.00;;;;;;5050297;28;20957;-36
2022/12/14 12:50:58;;;;;;;27.80;17.47;;;14.80;1.00;;;;;;5026860;28;20448;-36
2022/12/14 12:53:47;;;;;;;32.43;17.60;;;15.20;1.00;;;;;;5054087;28;20409;-36
2022/12/14 12:56:19;;;;;;;34.07;18.20;;;15.50;1.00;;;;;;5053908;28;20413;-36
2022/12/14 12:58:46;;;;;;;25.37;16.30;;;16.00;1.00;;;;;;5035734;28;20447;-36
2022/12/14 13:01:34;;;;;;;30.50;17.43;;;15.40;1.00;;;;;;5053985;28;20902;-36
2022/12/14 13:04:04;;;;;;;28.97;17.67;;;12.60;1.00;;;;;;5049710;28;20515;-36
2022/12/14 13:06:52;;;;;;;24.93;17.03;;;10.70;1.00;;;;;;5053246;28;20980;-36
2022/12/14 13:09:33;;;;;;;36.20;18.67;;;9.70;1.00;;;;;;5053064;28;20417;-36
2022/12/14 13:12:00;;;;;;;30.07;17.13;;;9.00;1.00;;;;;;5053177;28;20523;-36
2022/12/14 13:14:36;;;;;;;28.93;17.13;;;8.50;1.00;;;;;;5053241;28;20774;-37
2022/12/14 13:17:05;;;;;;;34.60;17.80;;;8.80;1.00;;;;;;5053312;28;20416;-37
2022/12/14 13:19:42;;;;;;;24.23;16.37;;;9.50;1.00;;;;;;5053108;28;20495;-38